Impacts METAR Board
IDs:

KLAX - Los Angeles Intl, CA, US

Updated at: 1800 UTC 09 Jun 2023
Potential Impact None Slight Moderate High
Time 09/06Z 09/07Z 09/08Z 09/09Z 09/10Z 09/11Z 09/12Z 09/13Z 09/14Z 09/15Z 09/16Z 09/17Z 09/18Z
Temp61 61 60 60 60 58 58 60 61 61 62 63 63
Dewpt57 57 57 56 56 55 55 56 56 56 56 56 56
Altim30.04 30.04 30.03 30.03 30.02 30.02 30.02 30.02 30.01 30.03 30.04 30.03 30.04
VIS10 10 10 10 10 10 10 10 10 10 10 10 10
CIG-- -- -- -- -- -- -- 15 14 21 16 21 23
CoverFEWFEWFEWFEWFEWFEWFEWBKNBKNOVCOVCOVCOVC
FltCatVFRVFRVFRVFRVFRVFRVFRMVFRMVFRMVFRMVFRMVFRMVFR
WX--------------------------
WDir24023024025020603000290280260260
WSpd11 7 7 4 4 3 4 3 4 4 6 7 10
WGst-- -- -- -- -- -- -- -- -- -- -- -- --
Raw hourly METARs
KLAX 090553Z 24011KT 10SM FEW009 FEW012 16/14 A3004 RMK AO2 SLP170 T01610139 10194 20161 53008
KLAX 090653Z 23007KT 10SM FEW009 FEW012 16/14 A3004 RMK AO2 SLP169 T01610139
KLAX 090753Z 24007KT 10SM FEW009 FEW012 16/14 A3003 RMK AO2 SLP168 T01560139 402060133
KLAX 090853Z 25004KT 10SM FEW009 FEW012 16/13 A3003 RMK AO2 SLP167 T01560133 58003
KLAX 090953Z 02004KT 10SM FEW009 FEW012 16/13 A3002 RMK AO2 SLP164 T01560133
KLAX 091053Z 06003KT 10SM FEW008 FEW015 14/13 A3002 RMK AO2 SLP162 T01440128
KLAX 091153Z 03004KT 10SM FEW008 FEW015 14/13 A3002 RMK AO2 SLP162 T01440128 10161 20144 56005
KLAX 091253Z VRB03KT 10SM FEW008 BKN015 BKN150 16/13 A3002 RMK AO2 SLP164 T01560133
KLAX 091353Z VRB04KT 10SM FEW009 BKN014 BKN023 16/13 A3001 RMK AO2 SLP162 T01610133
KLAX 091453Z 29004KT 10SM FEW009 SCT014 OVC021 16/13 A3003 RMK AO2 SLP166 T01610133 53004
KLAX 091553Z 28006KT 10SM FEW009 BKN016 OVC021 17/13 A3004 RMK AO2 SLP170 T01670133
KLAX 091653Z 26007KT 10SM FEW009 SCT016 OVC021 17/13 A3003 RMK AO2 SLP169 T01720133
KLAX 091753Z 26010KT 10SM SCT015 OVC023 17/13 A3004 RMK AO2 SLP171 T01720133 10172 20144 51005



Page loaded:  18:46 UTC  |   11:46 AM Pacific  |   12:46 PM Mountain  |   01:46 PM Central  |   02:46 PM Eastern

 

ADVISORIES

FORECASTS

FORECASTS

OBSERVATIONS

USER TOOLS

ABOUT US